Terminal Aerodrome Forecast
Issued by NWS Grand Forks, ND

Home | Current Version | Previous Version | Text Only | Print | Product List | Glossary On
Versions: 1 2 3 4 5 6 7 8 9 10 11 12 13 14
081
FTUS43 KFGF 010520
TAFGFK
TAF
KGFK 010520Z 0106/0206 34011KT P6SM OVC008
      TEMPO 0106/0110 -SN OVC012
     FM011600 35010KT P6SM OVC010
     FM020500 34006KT P6SM BKN015=

USA.gov is the U.S. government's official web portal to all federal, state and local government web resources and services.